This is the latest recevied weather packets stored in our database for station/object W4ZHA. If no packets are shown the sender has not sent any weather packets the latest 10 day(s).
| Time | Temp. | Humidity | Pressure | Rain* | Wind** | Luminosity | Snow |
|---|---|---|---|---|---|---|---|
| 1787661698 | 22.22° C | 64% | 1020 hPa | 0 mm | - | 72 W/m² | - |
| 1787661397 | 21.67° C | 65% | 1020 hPa | 0 mm | - | 66 W/m² | - |
| 1787661091 | 21.67° C | 66% | 1020 hPa | 0 mm | - | 64 W/m² | - |
| 1787660790 | 20.56° C | 68% | 1020 hPa | 0 mm | - | 53 W/m² | - |
| 1787660485 | 19.44° C | 71% | 1020 hPa | 0 mm | - | 40 W/m² | - |
| 1787660185 | 19.44° C | 71% | 1020 hPa | 0 mm | - | 27 W/m² | - |
| 1787659880 | 19.44° C | 71% | 1020 hPa | 0 mm | - | 21 W/m² | - |
| 1787659577 | 19.44° C | 70% | 1019.6 hPa | 0 mm | - | 16 W/m² | - |
| 1787659274 | 19.44° C | 70% | 1019.3 hPa | 0 mm | - | 12 W/m² | - |
| 1787658972 | 19.44° C | 71% | 1019.3 hPa | 0 mm | - | 11 W/m² | - |
| 1787658667 | 18.89° C | 71% | 1019.6 hPa | 0 mm | - | 11 W/m² | - |
| 1787658362 | 18.89° C | 70% | 1019.3 hPa | 0 mm | - | 10 W/m² | - |
| 1787658058 | 19.44° C | 70% | 1019.3 hPa | 0 mm | - | 7 W/m² | - |
| 1787657753 | 18.89° C | 71% | 1019.3 hPa | 0 mm | - | 6 W/m² | - |
| 1787657449 | 18.89° C | 72% | 1019.3 hPa | 0 mm | - | 5 W/m² | - |
| 1787657148 | 18.89° C | 70% | 1019.3 hPa | 0 mm | - | 3 W/m² | - |
| 1787656844 | 18.89° C | 71% | 1019 hPa | 0 mm | - | 2 W/m² | - |
| 1787656540 | 18.89° C | 70% | 1019 hPa | 0 mm | - | 0 W/m² | - |
| 1787656235 | 19.44° C | 69% | 1019 hPa | 0 mm | - | 0 W/m² | - |
| 1787655926 | 19.44° C | 70% | 1019 hPa | 0 mm | - | 0 W/m² | - |
| 1787655621 | 20° C | 69% | 1019 hPa | 0 mm | - | 0 W/m² | - |
| 1787655320 | 19.44° C | 69% | 1018.6 hPa | 0 mm | - | 0 W/m² | - |
| 1787655014 | 19.44° C | 70% | 1018.6 hPa | 0 mm | - | 0 W/m² | - |
| 1787654711 | 20° C | 68% | 1018.6 hPa | 0 mm | - | 0 W/m² | - |
| 1787654410 | 20° C | 68% | 1018.3 hPa | 0 mm | - | 0 W/m² | - |
* Rain latest hour (hover to see other rain measurements)
** Current wind speed in m/s (hover to see current wind gust speed)